sensor_id;sensor_type;location;lat;lon;timestamp;temperature;humidity
6375;DHT22;35400;45.472;-122.822;2023-02-28T00:01:25;6.20;99.90
6375;DHT22;35400;45.472;-122.822;2023-02-28T00:03:52;6.10;99.90
6375;DHT22;35400;45.472;-122.822;2023-02-28T00:06:19;6.10;99.90
6375;DHT22;35400;45.472;-122.822;2023-02-28T00:08:47;6.00;99.90
6375;DHT22;35400;45.472;-122.822;2023-02-28T00:11:15;6.00;99.90
6375;DHT22;35400;45.472;-122.822;2023-02-28T00:13:44;5.90;99.90
6375;DHT22;35400;45.472;-122.822;2023-02-28T00:16:18;5.90;99.90
6375;DHT22;35400;45.472;-122.822;2023-02-28T00:18:46;5.80;99.90
6375;DHT22;35400;45.472;-122.822;2023-02-28T00:21:14;5.80;99.90
6375;DHT22;35400;45.472;-122.822;2023-02-28T00:23:41;5.80;99.90
6375;DHT22;35400;45.472;-122.822;2023-02-28T00:26:08;5.70;99.90
6375;DHT22;35400;45.472;-122.822;2023-02-28T00:28:37;5.70;99.90
6375;DHT22;35400;45.472;-122.822;2023-02-28T00:31:03;5.60;99.90
6375;DHT22;35400;45.472;-122.822;2023-02-28T00:33:31;5.50;99.90
6375;DHT22;35400;45.472;-122.822;2023-02-28T00:36:06;5.50;99.90
6375;DHT22;35400;45.472;-122.822;2023-02-28T00:38:36;5.40;99.90
6375;DHT22;35400;45.472;-122.822;2023-02-28T00:41:03;5.40;99.90
6375;DHT22;35400;45.472;-122.822;2023-02-28T00:43:32;5.30;99.90
6375;DHT22;35400;45.472;-122.822;2023-02-28T00:45:59;5.30;99.90
6375;DHT22;35400;45.472;-122.822;2023-02-28T00:48:26;5.30;99.90
6375;DHT22;35400;45.472;-122.822;2023-02-28T00:50:53;5.30;99.90
6375;DHT22;35400;45.472;-122.822;2023-02-28T00:53:21;5.30;99.90
6375;DHT22;35400;45.472;-122.822;2023-02-28T00:55:49;5.30;99.90
6375;DHT22;35400;45.472;-122.822;2023-02-28T00:58:16;5.30;99.90
6375;DHT22;35400;45.472;-122.822;2023-02-28T01:00:43;5.20;99.90
6375;DHT22;35400;45.472;-122.822;2023-02-28T01:03:18;5.20;99.90
6375;DHT22;35400;45.472;-122.822;2023-02-28T01:05:48;5.20;99.90
6375;DHT22;35400;45.472;-122.822;2023-02-28T01:08:16;5.10;99.90
6375;DHT22;35400;45.472;-122.822;2023-02-28T01:10:43;5.00;99.90
6375;DHT22;35400;45.472;-122.822;2023-02-28T01:13:11;5.00;99.90
6375;DHT22;35400;45.472;-122.822;2023-02-28T01:15:41;5.00;99.90
6375;DHT22;35400;45.472;-122.822;2023-02-28T01:18:08;4.90;99.90
6375;DHT22;35400;45.472;-122.822;2023-02-28T01:20:38;4.90;99.90
6375;DHT22;35400;45.472;-122.822;2023-02-28T01:23:05;4.90;99.90
6375;DHT22;35400;45.472;-122.822;2023-02-28T01:25:37;4.80;99.90
6375;DHT22;35400;45.472;-122.822;2023-02-28T01:28:05;4.80;99.90
6375;DHT22;35400;45.472;-122.822;2023-02-28T01:30:32;4.80;99.90
6375;DHT22;35400;45.472;-122.822;2023-02-28T01:32:59;4.80;99.90
6375;DHT22;35400;45.472;-122.822;2023-02-28T01:35:26;4.70;99.90
6375;DHT22;35400;45.472;-122.822;2023-02-28T01:37:54;4.70;99.90
6375;DHT22;35400;45.472;-122.822;2023-02-28T01:40:21;4.70;99.90
6375;DHT22;35400;45.472;-122.822;2023-02-28T01:42:48;4.70;99.90
6375;DHT22;35400;45.472;-122.822;2023-02-28T01:45:27;4.70;99.90
6375;DHT22;35400;45.472;-122.822;2023-02-28T01:47:59;4.70;99.90
6375;DHT22;35400;45.472;-122.822;2023-02-28T01:50:31;4.70;99.90
6375;DHT22;35400;45.472;-122.822;2023-02-28T01:53:02;4.70;99.90
6375;DHT22;35400;45.472;-122.822;2023-02-28T01:55:32;4.60;99.90
6375;DHT22;35400;45.472;-122.822;2023-02-28T01:58:02;4.60;99.90
6375;DHT22;35400;45.472;-122.822;2023-02-28T02:00:31;4.60;99.90
6375;DHT22;35400;45.472;-122.822;2023-02-28T02:03:06;4.60;99.90
6375;DHT22;35400;45.472;-122.822;2023-02-28T02:05:37;4.60;99.90
6375;DHT22;35400;45.472;-122.822;2023-02-28T02:08:11;4.60;99.90
6375;DHT22;35400;45.472;-122.822;2023-02-28T02:10:51;4.60;99.90
6375;DHT22;35400;45.472;-122.822;2023-02-28T02:18:56;4.60;99.90
6375;DHT22;35400;45.472;-122.822;2023-02-28T02:21:45;4.50;99.90
6375;DHT22;35400;45.472;-122.822;2023-02-28T02:41:34;4.30;99.90
6375;DHT22;35400;45.472;-122.822;2023-02-28T02:46:50;4.20;99.90
6375;DHT22;35400;45.472;-122.822;2023-02-28T02:49:32;4.20;99.90
6375;DHT22;35400;45.472;-122.822;2023-02-28T02:52:05;4.10;99.90
6375;DHT22;35400;45.472;-122.822;2023-02-28T02:54:45;4.10;99.90
6375;DHT22;35400;45.472;-122.822;2023-02-28T02:57:25;4.10;99.90
6375;DHT22;35400;45.472;-122.822;2023-02-28T02:59:55;4.00;99.90
6375;DHT22;35400;45.472;-122.822;2023-02-28T03:02:23;4.00;99.90
6375;DHT22;35400;45.472;-122.822;2023-02-28T03:04:58;4.00;99.90
6375;DHT22;35400;45.472;-122.822;2023-02-28T03:07:27;4.00;99.90
6375;DHT22;35400;45.472;-122.822;2023-02-28T03:09:56;4.00;99.90
6375;DHT22;35400;45.472;-122.822;2023-02-28T03:12:35;4.00;99.90
6375;DHT22;35400;45.472;-122.822;2023-02-28T03:15:19;4.00;99.90
6375;DHT22;35400;45.472;-122.822;2023-02-28T03:23:32;4.00;99.90
6375;DHT22;35400;45.472;-122.822;2023-02-28T03:26:30;4.00;99.90
6375;DHT22;35400;45.472;-122.822;2023-02-28T03:29:15;4.00;99.90
6375;DHT22;35400;45.472;-122.822;2023-02-28T03:34:56;4.00;99.90
6375;DHT22;35400;45.472;-122.822;2023-02-28T03:37:26;4.00;99.90
6375;DHT22;35400;45.472;-122.822;2023-02-28T03:40:22;4.10;99.90
6375;DHT22;35400;45.472;-122.822;2023-02-28T03:42:53;4.10;99.90
6375;DHT22;35400;45.472;-122.822;2023-02-28T03:45:25;4.10;99.90
6375;DHT22;35400;45.472;-122.822;2023-02-28T03:50:59;4.10;99.90
6375;DHT22;35400;45.472;-122.822;2023-02-28T03:53:21;4.10;99.90
6375;DHT22;35400;45.472;-122.822;2023-02-28T03:55:59;4.10;99.90
6375;DHT22;35400;45.472;-122.822;2023-02-28T03:58:55;4.10;99.90
6375;DHT22;35400;45.472;-122.822;2023-02-28T04:01:32;4.10;99.90
6375;DHT22;35400;45.472;-122.822;2023-02-28T04:04:01;4.10;99.90
6375;DHT22;35400;45.472;-122.822;2023-02-28T04:06:31;4.10;99.90
6375;DHT22;35400;45.472;-122.822;2023-02-28T04:08:59;4.10;99.90
6375;DHT22;35400;45.472;-122.822;2023-02-28T04:11:36;4.00;99.90
6375;DHT22;35400;45.472;-122.822;2023-02-28T04:14:04;4.00;99.90
6375;DHT22;35400;45.472;-122.822;2023-02-28T04:16:32;4.00;99.90
6375;DHT22;35400;45.472;-122.822;2023-02-28T04:18:59;4.00;99.90
6375;DHT22;35400;45.472;-122.822;2023-02-28T04:21:29;4.00;99.90
6375;DHT22;35400;45.472;-122.822;2023-02-28T04:23:56;3.90;99.90
6375;DHT22;35400;45.472;-122.822;2023-02-28T04:26:30;3.90;99.90
6375;DHT22;35400;45.472;-122.822;2023-02-28T04:28:57;3.90;99.90
6375;DHT22;35400;45.472;-122.822;2023-02-28T04:31:24;3.90;99.90
6375;DHT22;35400;45.472;-122.822;2023-02-28T04:33:51;3.90;99.90
6375;DHT22;35400;45.472;-122.822;2023-02-28T04:36:18;3.90;99.90
6375;DHT22;35400;45.472;-122.822;2023-02-28T04:38:45;3.80;99.90
6375;DHT22;35400;45.472;-122.822;2023-02-28T04:41:13;3.80;99.90
6375;DHT22;35400;45.472;-122.822;2023-02-28T04:43:40;3.80;99.90
6375;DHT22;35400;45.472;-122.822;2023-02-28T04:46:07;3.80;99.90
6375;DHT22;35400;45.472;-122.822;2023-02-28T04:48:36;3.80;99.90
6375;DHT22;35400;45.472;-122.822;2023-02-28T04:51:05;3.80;99.90
6375;DHT22;35400;45.472;-122.822;2023-02-28T04:53:33;3.70;99.90
6375;DHT22;35400;45.472;-122.822;2023-02-28T04:56:01;3.70;99.90
6375;DHT22;35400;45.472;-122.822;2023-02-28T04:58:28;3.70;99.90
6375;DHT22;35400;45.472;-122.822;2023-02-28T05:01:06;3.70;99.90
6375;DHT22;35400;45.472;-122.822;2023-02-28T05:03:39;3.70;99.90
6375;DHT22;35400;45.472;-122.822;2023-02-28T05:06:11;3.70;99.90
6375;DHT22;35400;45.472;-122.822;2023-02-28T05:08:38;3.70;99.90
6375;DHT22;35400;45.472;-122.822;2023-02-28T05:11:12;3.70;99.90
6375;DHT22;35400;45.472;-122.822;2023-02-28T05:13:40;3.70;99.90
6375;DHT22;35400;45.472;-122.822;2023-02-28T05:16:07;3.70;99.90
6375;DHT22;35400;45.472;-122.822;2023-02-28T05:18:34;3.60;99.90
6375;DHT22;35400;45.472;-122.822;2023-02-28T05:21:00;3.60;99.90
6375;DHT22;35400;45.472;-122.822;2023-02-28T05:23:30;3.60;99.90
6375;DHT22;35400;45.472;-122.822;2023-02-28T05:25:57;3.60;99.90
6375;DHT22;35400;45.472;-122.822;2023-02-28T05:28:24;3.60;99.90
6375;DHT22;35400;45.472;-122.822;2023-02-28T05:30:51;3.60;99.90
6375;DHT22;35400;45.472;-122.822;2023-02-28T05:33:18;3.60;99.90
6375;DHT22;35400;45.472;-122.822;2023-02-28T05:35:44;3.60;99.90
6375;DHT22;35400;45.472;-122.822;2023-02-28T05:38:11;3.60;99.90
6375;DHT22;35400;45.472;-122.822;2023-02-28T05:40:39;3.60;99.90
6375;DHT22;35400;45.472;-122.822;2023-02-28T05:43:09;3.60;99.90
6375;DHT22;35400;45.472;-122.822;2023-02-28T05:45:36;3.60;99.90
6375;DHT22;35400;45.472;-122.822;2023-02-28T05:48:03;3.50;99.90
6375;DHT22;35400;45.472;-122.822;2023-02-28T05:50:30;3.50;99.90
6375;DHT22;35400;45.472;-122.822;2023-02-28T05:52:57;3.50;99.90
6375;DHT22;35400;45.472;-122.822;2023-02-28T05:55:24;3.50;99.90
6375;DHT22;35400;45.472;-122.822;2023-02-28T05:57:50;3.50;99.90
6375;DHT22;35400;45.472;-122.822;2023-02-28T06:00:18;3.40;99.90
6375;DHT22;35400;45.472;-122.822;2023-02-28T06:02:45;3.40;99.90
6375;DHT22;35400;45.472;-122.822;2023-02-28T06:05:18;3.40;99.90
6375;DHT22;35400;45.472;-122.822;2023-02-28T06:07:45;3.40;99.90
6375;DHT22;35400;45.472;-122.822;2023-02-28T06:10:12;3.40;99.90
6375;DHT22;35400;45.472;-122.822;2023-02-28T06:12:39;3.40;99.90
6375;DHT22;35400;45.472;-122.822;2023-02-28T06:15:14;3.40;99.90
6375;DHT22;35400;45.472;-122.822;2023-02-28T06:17:43;3.30;99.90
6375;DHT22;35400;45.472;-122.822;2023-02-28T06:20:11;3.30;99.90
6375;DHT22;35400;45.472;-122.822;2023-02-28T06:22:39;3.30;99.90
6375;DHT22;35400;45.472;-122.822;2023-02-28T06:25:07;3.30;99.90
6375;DHT22;35400;45.472;-122.822;2023-02-28T06:27:34;3.20;99.90
6375;DHT22;35400;45.472;-122.822;2023-02-28T06:30:02;3.20;99.90
6375;DHT22;35400;45.472;-122.822;2023-02-28T06:32:29;3.20;99.90
6375;DHT22;35400;45.472;-122.822;2023-02-28T06:34:56;3.10;99.90
6375;DHT22;35400;45.472;-122.822;2023-02-28T06:37:24;3.10;99.90
6375;DHT22;35400;45.472;-122.822;2023-02-28T06:39:53;3.10;99.90
6375;DHT22;35400;45.472;-122.822;2023-02-28T06:42:23;3.10;99.90
6375;DHT22;35400;45.472;-122.822;2023-02-28T06:44:55;3.00;99.90
6375;DHT22;35400;45.472;-122.822;2023-02-28T06:47:22;3.00;99.90
6375;DHT22;35400;45.472;-122.822;2023-02-28T06:49:49;3.00;99.90
6375;DHT22;35400;45.472;-122.822;2023-02-28T06:52:17;3.00;99.90
6375;DHT22;35400;45.472;-122.822;2023-02-28T06:54:43;2.90;99.90
6375;DHT22;35400;45.472;-122.822;2023-02-28T06:57:10;2.90;99.90
6375;DHT22;35400;45.472;-122.822;2023-02-28T06:59:37;2.90;99.90
6375;DHT22;35400;45.472;-122.822;2023-02-28T07:02:04;2.90;99.90
6375;DHT22;35400;45.472;-122.822;2023-02-28T07:04:33;2.90;99.90
6375;DHT22;35400;45.472;-122.822;2023-02-28T07:07:00;2.90;99.90
6375;DHT22;35400;45.472;-122.822;2023-02-28T07:09:27;2.90;99.90
6375;DHT22;35400;45.472;-122.822;2023-02-28T07:11:56;2.90;99.90
6375;DHT22;35400;45.472;-122.822;2023-02-28T07:14:23;2.90;99.90
6375;DHT22;35400;45.472;-122.822;2023-02-28T07:16:49;2.80;99.90
6375;DHT22;35400;45.472;-122.822;2023-02-28T07:19:16;2.80;99.90
6375;DHT22;35400;45.472;-122.822;2023-02-28T07:21:43;2.80;99.90
6375;DHT22;35400;45.472;-122.822;2023-02-28T07:24:11;2.80;99.90
6375;DHT22;35400;45.472;-122.822;2023-02-28T07:26:38;2.80;99.90
6375;DHT22;35400;45.472;-122.822;2023-02-28T07:29:05;2.70;99.90
6375;DHT22;35400;45.472;-122.822;2023-02-28T07:31:31;2.70;99.90
6375;DHT22;35400;45.472;-122.822;2023-02-28T07:33:58;2.70;99.90
6375;DHT22;35400;45.472;-122.822;2023-02-28T07:36:25;2.70;99.90
6375;DHT22;35400;45.472;-122.822;2023-02-28T07:38:52;2.70;99.90
6375;DHT22;35400;45.472;-122.822;2023-02-28T07:41:22;2.60;99.90
6375;DHT22;35400;45.472;-122.822;2023-02-28T07:43:53;2.60;99.90
6375;DHT22;35400;45.472;-122.822;2023-02-28T07:46:22;2.60;99.90
6375;DHT22;35400;45.472;-122.822;2023-02-28T07:48:49;2.60;99.90
6375;DHT22;35400;45.472;-122.822;2023-02-28T07:51:16;2.60;99.90
6375;DHT22;35400;45.472;-122.822;2023-02-28T07:53:43;2.60;99.90
6375;DHT22;35400;45.472;-122.822;2023-02-28T07:56:10;2.60;99.90
6375;DHT22;35400;45.472;-122.822;2023-02-28T07:58:37;2.60;99.90
6375;DHT22;35400;45.472;-122.822;2023-02-28T08:01:09;2.60;99.90
6375;DHT22;35400;45.472;-122.822;2023-02-28T08:03:37;2.60;99.90
6375;DHT22;35400;45.472;-122.822;2023-02-28T08:06:06;2.60;99.90
6375;DHT22;35400;45.472;-122.822;2023-02-28T08:08:34;2.60;99.90
6375;DHT22;35400;45.472;-122.822;2023-02-28T08:11:02;2.60;99.90
6375;DHT22;35400;45.472;-122.822;2023-02-28T08:13:30;2.60;99.90
6375;DHT22;35400;45.472;-122.822;2023-02-28T08:15:57;2.60;99.90
6375;DHT22;35400;45.472;-122.822;2023-02-28T08:18:24;2.60;99.90
6375;DHT22;35400;45.472;-122.822;2023-02-28T08:20:51;2.60;99.90
6375;DHT22;35400;45.472;-122.822;2023-02-28T08:23:18;2.60;99.90
6375;DHT22;35400;45.472;-122.822;2023-02-28T08:25:45;2.60;99.90
6375;DHT22;35400;45.472;-122.822;2023-02-28T08:28:11;2.60;99.90
6375;DHT22;35400;45.472;-122.822;2023-02-28T08:30:38;2.60;99.90
6375;DHT22;35400;45.472;-122.822;2023-02-28T08:33:07;2.60;99.90
6375;DHT22;35400;45.472;-122.822;2023-02-28T08:35:36;2.60;99.90
6375;DHT22;35400;45.472;-122.822;2023-02-28T08:38:03;2.60;99.90
6375;DHT22;35400;45.472;-122.822;2023-02-28T08:40:30;2.60;99.90
6375;DHT22;35400;45.472;-122.822;2023-02-28T08:42:57;2.60;99.90
6375;DHT22;35400;45.472;-122.822;2023-02-28T08:45:25;2.60;99.90
6375;DHT22;35400;45.472;-122.822;2023-02-28T08:47:53;2.60;99.90
6375;DHT22;35400;45.472;-122.822;2023-02-28T08:50:20;2.60;99.90
6375;DHT22;35400;45.472;-122.822;2023-02-28T08:52:47;2.60;99.90
6375;DHT22;35400;45.472;-122.822;2023-02-28T08:55:14;2.60;99.90
6375;DHT22;35400;45.472;-122.822;2023-02-28T08:57:41;2.60;99.90
6375;DHT22;35400;45.472;-122.822;2023-02-28T09:00:08;2.60;99.90
6375;DHT22;35400;45.472;-122.822;2023-02-28T09:02:36;2.60;99.90
6375;DHT22;35400;45.472;-122.822;2023-02-28T09:05:03;2.60;99.90
6375;DHT22;35400;45.472;-122.822;2023-02-28T09:07:30;2.60;99.90
6375;DHT22;35400;45.472;-122.822;2023-02-28T09:09:57;2.60;99.90
6375;DHT22;35400;45.472;-122.822;2023-02-28T09:12:25;2.60;99.90
6375;DHT22;35400;45.472;-122.822;2023-02-28T09:14:52;2.60;99.90
6375;DHT22;35400;45.472;-122.822;2023-02-28T09:17:20;2.60;99.90
6375;DHT22;35400;45.472;-122.822;2023-02-28T09:19:48;2.70;99.90
6375;DHT22;35400;45.472;-122.822;2023-02-28T09:22:15;2.70;99.90
6375;DHT22;35400;45.472;-122.822;2023-02-28T09:24:42;2.70;99.90
6375;DHT22;35400;45.472;-122.822;2023-02-28T09:27:10;2.70;99.90
6375;DHT22;35400;45.472;-122.822;2023-02-28T09:29:37;2.70;99.90
6375;DHT22;35400;45.472;-122.822;2023-02-28T09:32:04;2.70;99.90
6375;DHT22;35400;45.472;-122.822;2023-02-28T09:34:32;2.70;99.90
6375;DHT22;35400;45.472;-122.822;2023-02-28T09:36:58;2.70;99.90
6375;DHT22;35400;45.472;-122.822;2023-02-28T09:39:25;2.70;99.90
6375;DHT22;35400;45.472;-122.822;2023-02-28T09:41:54;2.70;99.90
6375;DHT22;35400;45.472;-122.822;2023-02-28T09:44:31;2.70;99.90
6375;DHT22;35400;45.472;-122.822;2023-02-28T09:47:40;2.70;99.90
6375;DHT22;35400;45.472;-122.822;2023-02-28T09:52:53;2.60;99.90
6375;DHT22;35400;45.472;-122.822;2023-02-28T09:55:29;2.60;99.90
6375;DHT22;35400;45.472;-122.822;2023-02-28T09:57:57;2.60;99.90
6375;DHT22;35400;45.472;-122.822;2023-02-28T10:00:40;2.60;99.90
6375;DHT22;35400;45.472;-122.822;2023-02-28T10:08:56;2.50;99.90
6375;DHT22;35400;45.472;-122.822;2023-02-28T10:11:25;2.50;99.90
6375;DHT22;35400;45.472;-122.822;2023-02-28T10:13:58;2.50;99.90
6375;DHT22;35400;45.472;-122.822;2023-02-28T10:22:11;2.50;99.90
6375;DHT22;35400;45.472;-122.822;2023-02-28T10:24:46;2.50;99.90
6375;DHT22;35400;45.472;-122.822;2023-02-28T10:27:19;2.50;99.90
6375;DHT22;35400;45.472;-122.822;2023-02-28T10:29:55;2.50;99.90
6375;DHT22;35400;45.472;-122.822;2023-02-28T10:32:35;2.50;99.90
6375;DHT22;35400;45.472;-122.822;2023-02-28T10:35:19;2.50;99.90
6375;DHT22;35400;45.472;-122.822;2023-02-28T10:37:57;2.40;99.90
6375;DHT22;35400;45.472;-122.822;2023-02-28T10:45:25;2.40;99.90
6375;DHT22;35400;45.472;-122.822;2023-02-28T10:47:58;2.40;99.90
6375;DHT22;35400;45.472;-122.822;2023-02-28T10:53:30;2.40;99.90
6375;DHT22;35400;45.472;-122.822;2023-02-28T10:56:14;2.40;99.90
6375;DHT22;35400;45.472;-122.822;2023-02-28T11:01:34;2.40;99.90
6375;DHT22;35400;45.472;-122.822;2023-02-28T11:04:02;2.40;99.90
6375;DHT22;35400;45.472;-122.822;2023-02-28T11:06:31;2.30;99.90
6375;DHT22;35400;45.472;-122.822;2023-02-28T11:09:15;2.30;99.90
6375;DHT22;35400;45.472;-122.822;2023-02-28T11:11:46;2.30;99.90
6375;DHT22;35400;45.472;-122.822;2023-02-28T11:14:37;2.30;99.90
6375;DHT22;35400;45.472;-122.822;2023-02-28T11:17:21;2.20;99.90
6375;DHT22;35400;45.472;-122.822;2023-02-28T11:19:52;2.20;99.90
6375;DHT22;35400;45.472;-122.822;2023-02-28T11:22:26;2.20;99.90
6375;DHT22;35400;45.472;-122.822;2023-02-28T11:24:59;2.10;99.90
6375;DHT22;35400;45.472;-122.822;2023-02-28T11:29:58;2.10;99.90
6375;DHT22;35400;45.472;-122.822;2023-02-28T11:32:28;2.00;99.90
6375;DHT22;35400;45.472;-122.822;2023-02-28T11:37:38;2.00;99.90
6375;DHT22;35400;45.472;-122.822;2023-02-28T11:40:22;2.00;99.90
6375;DHT22;35400;45.472;-122.822;2023-02-28T11:49:18;2.00;99.90
6375;DHT22;35400;45.472;-122.822;2023-02-28T11:51:24;2.00;99.90
6375;DHT22;35400;45.472;-122.822;2023-02-28T11:57:02;2.00;99.90
6375;DHT22;35400;45.472;-122.822;2023-02-28T12:04:58;1.90;99.90
6375;DHT22;35400;45.472;-122.822;2023-02-28T12:13:37;1.90;99.90
6375;DHT22;35400;45.472;-122.822;2023-02-28T12:19:19;1.80;99.90
6375;DHT22;35400;45.472;-122.822;2023-02-28T12:21:46;1.80;99.90
6375;DHT22;35400;45.472;-122.822;2023-02-28T12:26:51;1.80;99.90
6375;DHT22;35400;45.472;-122.822;2023-02-28T12:29:32;1.80;99.90
6375;DHT22;35400;45.472;-122.822;2023-02-28T12:32:16;1.80;99.90
6375;DHT22;35400;45.472;-122.822;2023-02-28T12:35:00;1.80;99.90
6375;DHT22;35400;45.472;-122.822;2023-02-28T12:37:57;1.80;99.90
6375;DHT22;35400;45.472;-122.822;2023-02-28T12:40:41;1.70;99.90
6375;DHT22;35400;45.472;-122.822;2023-02-28T12:43:09;1.70;99.90
6375;DHT22;35400;45.472;-122.822;2023-02-28T12:45:48;1.70;99.90
6375;DHT22;35400;45.472;-122.822;2023-02-28T12:48:30;1.70;99.90
6375;DHT22;35400;45.472;-122.822;2023-02-28T12:50:59;1.70;99.90
6375;DHT22;35400;45.472;-122.822;2023-02-28T12:58:51;1.70;99.90
6375;DHT22;35400;45.472;-122.822;2023-02-28T13:07:49;1.80;99.90
6375;DHT22;35400;45.472;-122.822;2023-02-28T13:09:57;1.80;99.90
6375;DHT22;35400;45.472;-122.822;2023-02-28T13:12:25;1.80;99.90
6375;DHT22;35400;45.472;-122.822;2023-02-28T13:15:08;1.80;99.90
6375;DHT22;35400;45.472;-122.822;2023-02-28T13:17:40;1.90;99.90
6375;DHT22;35400;45.472;-122.822;2023-02-28T13:20:21;1.90;99.90
6375;DHT22;35400;45.472;-122.822;2023-02-28T13:22:52;1.90;99.90
6375;DHT22;35400;45.472;-122.822;2023-02-28T13:27:51;1.90;99.90
6375;DHT22;35400;45.472;-122.822;2023-02-28T13:33:27;1.90;99.90
6375;DHT22;35400;45.472;-122.822;2023-02-28T13:38:41;2.00;99.90
6375;DHT22;35400;45.472;-122.822;2023-02-28T13:49:25;2.00;99.90
6375;DHT22;35400;45.472;-122.822;2023-02-28T14:03:18;2.10;99.90
6375;DHT22;35400;45.472;-122.822;2023-02-28T14:06:36;2.10;99.90
6375;DHT22;35400;45.472;-122.822;2023-02-28T14:11:53;2.10;99.90
6375;DHT22;35400;45.472;-122.822;2023-02-28T14:17:07;2.10;99.90
6375;DHT22;35400;45.472;-122.822;2023-02-28T14:19:37;2.10;99.90
6375;DHT22;35400;45.472;-122.822;2023-02-28T14:25:10;2.10;99.90
6375;DHT22;35400;45.472;-122.822;2023-02-28T14:36:39;2.20;99.90
6375;DHT22;35400;45.472;-122.822;2023-02-28T14:41:40;2.20;99.90
6375;DHT22;35400;45.472;-122.822;2023-02-28T14:44:33;2.20;99.90
6375;DHT22;35400;45.472;-122.822;2023-02-28T14:47:03;2.20;99.90
6375;DHT22;35400;45.472;-122.822;2023-02-28T14:49:36;2.20;99.90
6375;DHT22;35400;45.472;-122.822;2023-02-28T14:52:29;2.20;99.90
6375;DHT22;35400;45.472;-122.822;2023-02-28T14:55:04;2.20;99.90
6375;DHT22;35400;45.472;-122.822;2023-02-28T14:57:39;2.20;99.90
6375;DHT22;35400;45.472;-122.822;2023-02-28T15:00:25;2.20;99.90
6375;DHT22;35400;45.472;-122.822;2023-02-28T15:02:53;2.20;99.90
6375;DHT22;35400;45.472;-122.822;2023-02-28T15:05:32;2.20;99.90
6375;DHT22;35400;45.472;-122.822;2023-02-28T15:08:15;2.20;99.90
6375;DHT22;35400;45.472;-122.822;2023-02-28T15:13:19;2.20;99.90
6375;DHT22;35400;45.472;-122.822;2023-02-28T15:16:01;2.20;99.90
6375;DHT22;35400;45.472;-122.822;2023-02-28T15:18:46;2.20;99.90
6375;DHT22;35400;45.472;-122.822;2023-02-28T15:21:25;2.20;99.90
6375;DHT22;35400;45.472;-122.822;2023-02-28T15:23:59;2.20;99.90
6375;DHT22;35400;45.472;-122.822;2023-02-28T15:26:37;2.20;99.90
6375;DHT22;35400;45.472;-122.822;2023-02-28T15:29:10;2.20;99.90
6375;DHT22;35400;45.472;-122.822;2023-02-28T15:32:05;2.20;99.90
6375;DHT22;35400;45.472;-122.822;2023-02-28T15:34:42;2.20;99.90
6375;DHT22;35400;45.472;-122.822;2023-02-28T15:39:58;2.20;99.90
6375;DHT22;35400;45.472;-122.822;2023-02-28T15:42:31;2.20;99.90
6375;DHT22;35400;45.472;-122.822;2023-02-28T15:44:58;2.20;99.90
6375;DHT22;35400;45.472;-122.822;2023-02-28T15:47:28;2.20;99.90
6375;DHT22;35400;45.472;-122.822;2023-02-28T15:50:04;2.20;99.90
6375;DHT22;35400;45.472;-122.822;2023-02-28T15:52:37;2.20;99.90
6375;DHT22;35400;45.472;-122.822;2023-02-28T15:55:20;2.20;99.90
6375;DHT22;35400;45.472;-122.822;2023-02-28T15:57:50;2.10;99.90
6375;DHT22;35400;45.472;-122.822;2023-02-28T16:00:24;2.10;99.90
6375;DHT22;35400;45.472;-122.822;2023-02-28T16:02:52;2.20;99.90
6375;DHT22;35400;45.472;-122.822;2023-02-28T16:07:59;2.20;99.90
6375;DHT22;35400;45.472;-122.822;2023-02-28T16:10:28;2.20;99.90
6375;DHT22;35400;45.472;-122.822;2023-02-28T16:12:56;2.20;99.90
6375;DHT22;35400;45.472;-122.822;2023-02-28T16:15:27;2.20;99.90
6375;DHT22;35400;45.472;-122.822;2023-02-28T16:17:56;2.30;99.90
6375;DHT22;35400;45.472;-122.822;2023-02-28T16:20:30;2.30;99.90
6375;DHT22;35400;45.472;-122.822;2023-02-28T16:22:57;2.30;99.90
6375;DHT22;35400;45.472;-122.822;2023-02-28T16:25:34;2.40;99.90
6375;DHT22;35400;45.472;-122.822;2023-02-28T16:28:02;2.40;99.90
6375;DHT22;35400;45.472;-122.822;2023-02-28T16:30:30;2.40;99.90
6375;DHT22;35400;45.472;-122.822;2023-02-28T16:33:00;2.40;99.90
6375;DHT22;35400;45.472;-122.822;2023-02-28T16:35:26;2.50;99.90
6375;DHT22;35400;45.472;-122.822;2023-02-28T16:37:54;2.50;99.90
6375;DHT22;35400;45.472;-122.822;2023-02-28T16:40:23;2.50;99.90
6375;DHT22;35400;45.472;-122.822;2023-02-28T16:42:53;2.50;99.90
6375;DHT22;35400;45.472;-122.822;2023-02-28T16:45:23;2.50;99.90
6375;DHT22;35400;45.472;-122.822;2023-02-28T16:47:51;2.50;99.90
6375;DHT22;35400;45.472;-122.822;2023-02-28T16:50:24;2.50;99.90
6375;DHT22;35400;45.472;-122.822;2023-02-28T16:52:52;2.50;99.90
6375;DHT22;35400;45.472;-122.822;2023-02-28T16:55:22;2.50;99.90
6375;DHT22;35400;45.472;-122.822;2023-02-28T16:58:02;2.50;99.90
6375;DHT22;35400;45.472;-122.822;2023-02-28T17:00:31;2.40;99.90
6375;DHT22;35400;45.472;-122.822;2023-02-28T17:03:00;2.40;99.90
6375;DHT22;35400;45.472;-122.822;2023-02-28T17:05:36;2.40;99.90
6375;DHT22;35400;45.472;-122.822;2023-02-28T17:08:09;2.40;99.90
6375;DHT22;35400;45.472;-122.822;2023-02-28T17:10:37;2.40;99.90
6375;DHT22;35400;45.472;-122.822;2023-02-28T17:13:05;2.40;99.90
6375;DHT22;35400;45.472;-122.822;2023-02-28T17:15:35;2.40;99.90
6375;DHT22;35400;45.472;-122.822;2023-02-28T17:18:04;2.40;99.90
6375;DHT22;35400;45.472;-122.822;2023-02-28T17:20:32;2.40;99.90
6375;DHT22;35400;45.472;-122.822;2023-02-28T17:23:02;2.40;99.90
6375;DHT22;35400;45.472;-122.822;2023-02-28T17:25:30;2.40;99.90
6375;DHT22;35400;45.472;-122.822;2023-02-28T17:27:58;2.40;99.90
6375;DHT22;35400;45.472;-122.822;2023-02-28T17:30:27;2.40;99.90
6375;DHT22;35400;45.472;-122.822;2023-02-28T17:32:56;2.40;99.90
6375;DHT22;35400;45.472;-122.822;2023-02-28T17:35:24;2.50;99.90
6375;DHT22;35400;45.472;-122.822;2023-02-28T17:37:54;2.50;99.90
6375;DHT22;35400;45.472;-122.822;2023-02-28T17:40:23;2.60;99.90
6375;DHT22;35400;45.472;-122.822;2023-02-28T17:42:52;2.70;99.90
6375;DHT22;35400;45.472;-122.822;2023-02-28T17:45:22;2.80;99.90
6375;DHT22;35400;45.472;-122.822;2023-02-28T17:47:50;2.80;99.90
6375;DHT22;35400;45.472;-122.822;2023-02-28T17:50:20;2.90;99.90
6375;DHT22;35400;45.472;-122.822;2023-02-28T17:52:49;3.00;99.90
6375;DHT22;35400;45.472;-122.822;2023-02-28T17:55:16;3.00;99.90
6375;DHT22;35400;45.472;-122.822;2023-02-28T17:57:45;3.10;99.90
6375;DHT22;35400;45.472;-122.822;2023-02-28T18:00:14;3.10;99.90
6375;DHT22;35400;45.472;-122.822;2023-02-28T18:02:42;3.20;99.90
6375;DHT22;35400;45.472;-122.822;2023-02-28T18:05:10;3.30;99.90
6375;DHT22;35400;45.472;-122.822;2023-02-28T18:07:38;3.30;99.90
6375;DHT22;35400;45.472;-122.822;2023-02-28T18:10:16;3.40;99.90
6375;DHT22;35400;45.472;-122.822;2023-02-28T18:12:50;3.40;99.90
6375;DHT22;35400;45.472;-122.822;2023-02-28T18:15:18;3.50;99.90
6375;DHT22;35400;45.472;-122.822;2023-02-28T18:17:49;3.60;99.90
6375;DHT22;35400;45.472;-122.822;2023-02-28T18:20:16;3.70;99.90